Time;durP1;ratioP1;P1;durP2;ratioP2;P2;SDS_P1;SDS_P2;PMS_P1;PMS_P2;Temp;Humidity;BMP_temperature;BMP_pressure;BME280_temperature;BME280_humidity;BME280_pressure;Samples;Min_cycle;Max_cycle;Signal;HPM_P1;HPM_P2
2021/01/01 00:00:47;;;;;;;;;;;;;;;9.69;60.47;99092.13;5054724;28;20025;-80
2021/01/01 00:03:12;;;;;;;59.30;41.83;;;;;;;9.37;60.69;99033.50;5054512;28;19967;-80
2021/01/01 00:05:39;;;;;;;61.67;39.45;;;;;;;9.79;60.35;99079.47;5053274;28;20058;-77
2021/01/01 00:08:05;;;;;;;44.17;30.20;;;;;;;9.64;60.21;99057.53;5054552;28;20113;-79
2021/01/01 00:10:30;;;;;;;44.78;28.17;;;;;;;9.82;60.06;99087.81;5054319;28;20025;-79
2021/01/01 00:12:56;;;;;;;47.97;28.88;;;;;;;9.77;60.28;99095.47;5054355;28;20052;-79
2021/01/01 00:15:21;;;;;;;41.65;26.63;;;;;;;9.28;59.80;99021.41;5054105;28;20108;-78
2021/01/01 00:17:47;;;;;;;35.03;22.35;;;;;;;9.46;59.92;99061.38;5054357;28;20029;-79
2021/01/01 00:20:12;;;;;;;35.38;20.90;;;;;;;9.11;60.25;98999.72;5053246;28;20107;-80
2021/01/01 00:22:40;;;;;;;39.00;25.65;;;;;;;9.63;59.93;99095.44;5053023;28;20161;-81
2021/01/01 00:25:06;;;;;;;39.13;23.83;;;;;;;9.43;59.52;99082.81;5053135;28;20072;-77
2021/01/01 00:27:32;;;;;;;42.05;24.17;;;;;;;9.55;60.05;99107.72;5054137;28;20158;-78
2021/01/01 00:29:57;;;;;;;36.78;24.85;;;;;;;9.13;60.09;99052.22;5054110;28;20064;-77
2021/01/01 00:32:24;;;;;;;32.00;20.75;;;;;;;9.26;60.11;99062.94;5053865;28;20037;-74
2021/01/01 00:34:49;;;;;;;26.30;17.67;;;;;;;9.43;60.11;99106.53;5054173;28;20032;-77
2021/01/01 00:37:15;;;;;;;23.73;15.82;;;;;;;9.52;59.68;99126.53;5054264;28;20339;-78
2021/01/01 00:39:41;;;;;;;22.83;14.50;;;;;;;8.55;59.78;98969.50;5055330;28;20032;-78
2021/01/01 00:42:06;;;;;;;21.55;15.27;;;;;;;9.46;59.87;99113.25;5058163;28;20035;-78
2021/01/01 00:44:33;;;;;;;22.58;14.32;;;;;;;8.94;59.88;99042.19;5057882;28;20056;-79
2021/01/01 00:46:58;;;;;;;25.23;13.98;;;;;;;9.43;59.90;99121.53;5057691;28;20075;-79
2021/01/01 00:49:24;;;;;;;19.88;12.57;;;;;;;9.37;59.68;99114.34;5057705;28;20427;-79
2021/01/01 00:51:49;;;;;;;21.77;12.93;;;;;;;9.17;59.39;99103.53;5057973;28;20029;-78
2021/01/01 00:54:14;;;;;;;21.25;13.85;;;;;;;9.40;59.73;99129.78;5057713;28;20313;-79
2021/01/01 00:56:40;;;;;;;22.50;14.90;;;;;;;9.36;59.38;99134.63;5057553;28;20051;-78
2021/01/01 00:59:06;;;;;;;21.25;13.63;;;;;;;9.32;59.40;99143.88;5057637;28;20024;-80
2021/01/01 01:01:31;;;;;;;23.33;13.65;;;;;;;9.31;59.39;99131.69;5057280;28;20021;-79
2021/01/01 01:03:57;;;;;;;20.05;11.70;;;;;;;9.30;59.40;99134.50;5056441;28;20025;-81
2021/01/01 01:06:24;;;;;;;17.85;11.75;;;;;;;9.32;59.24;99145.69;5056176;28;20020;-78
2021/01/01 01:08:50;;;;;;;22.33;11.93;;;;;;;9.32;59.18;99158.88;5056385;28;20029;-80
2021/01/01 01:11:21;;;;;;;22.13;12.63;;;;;;;8.56;59.26;99035.13;5056537;28;20029;-81
2021/01/01 01:13:47;;;;;;;24.50;12.70;;;;;;;9.03;59.55;99125.38;5057407;28;20025;-78
2021/01/01 01:16:18;;;;;;;20.88;13.25;;;;;;;9.19;59.89;99152.38;5057193;28;20458;-79
2021/01/01 01:18:44;;;;;;;18.35;11.63;;;;;;;9.16;59.48;99144.03;5056199;28;20056;-78
2021/01/01 01:21:09;;;;;;;20.58;12.82;;;;;;;8.98;59.66;99111.94;5057213;28;20056;-80
2021/01/01 01:23:34;;;;;;;21.05;11.98;;;;;;;8.79;59.12;99106.13;5055907;28;20424;-79
2021/01/01 01:26:00;;;;;;;19.20;11.98;;;;;;;8.79;59.30;99100.06;5056028;28;20113;-79
2021/01/01 01:28:25;;;;;;;22.27;12.45;;;;;;;8.70;59.50;99096.66;5057066;28;20107;-79
2021/01/01 01:30:50;;;;;;;19.58;11.82;;;;;;;8.94;59.43;99127.28;5056983;28;20029;-80
2021/01/01 01:33:16;;;;;;;23.02;13.13;;;;;;;8.25;59.73;99034.34;5056879;28;20033;-81
2021/01/01 01:35:41;;;;;;;16.88;11.63;;;;;;;9.03;59.38;99159.63;5055689;28;20352;-80
2021/01/01 01:38:07;;;;;;;17.92;11.55;;;;;;;8.62;59.17;99085.41;5055818;28;20063;-80
2021/01/01 01:40:32;;;;;;;21.63;12.20;;;;;;;8.59;59.47;99086.56;5055592;28;20092;-81
2021/01/01 01:42:58;;;;;;;24.00;13.52;;;;;;;7.77;59.66;98961.88;5055725;28;20029;-79
2021/01/01 01:45:23;;;;;;;24.08;13.88;;;;;;;8.80;59.33;99133.28;5055576;28;20112;-79
2021/01/01 01:47:49;;;;;;;38.22;19.95;;;;;;;8.40;59.43;99076.50;5056900;28;20428;-77
2021/01/01 01:50:16;;;;;;;34.40;17.55;;;;;;;8.27;59.40;99066.53;5056187;28;20037;-80
2021/01/01 01:52:42;;;;;;;25.02;15.77;;;;;;;8.56;59.36;99121.13;5056486;28;20317;-79
2021/01/01 01:55:09;;;;;;;24.00;15.10;;;;;;;8.08;59.46;99038.03;5056548;28;20080;-80
2021/01/01 01:57:35;;;;;;;22.70;14.38;;;;;;;8.24;59.49;99070.34;5056423;28;20031;-78
2021/01/01 02:00:15;;;;;;;22.88;14.45;;;;;;;8.91;59.40;99173.16;5056357;28;20094;-77
2021/01/01 02:02:41;;;;;;;23.17;13.77;;;;;;;8.79;59.19;99147.44;5055305;28;20033;-79
2021/01/01 02:05:08;;;;;;;23.17;13.02;;;;;;;8.86;59.43;99169.44;5056411;28;20044;-76
2021/01/01 02:07:34;;;;;;;26.63;14.98;;;;;;;8.86;59.20;99170.25;5055077;28;20036;-79
2021/01/01 02:09:59;;;;;;;23.40;14.07;;;;;;;8.75;59.05;99154.88;5055194;28;20025;-77
2021/01/01 02:12:24;;;;;;;24.85;15.63;;;;;;;8.31;59.57;99096.75;5056138;28;20029;-78
2021/01/01 02:14:50;;;;;;;25.83;14.60;;;;;;;8.13;59.71;99083.88;5056261;28;20436;-78
2021/01/01 02:17:15;;;;;;;26.55;15.82;;;;;;;8.71;59.29;99182.53;5056068;28;20041;-79
2021/01/01 02:19:41;;;;;;;26.80;16.58;;;;;;;8.39;59.31;99128.31;5055929;28;20039;-76
2021/01/01 02:22:08;;;;;;;39.75;23.40;;;;;;;8.19;59.45;99117.38;5054856;28;20053;-75
2021/01/01 02:24:34;;;;;;;23.92;13.35;;;;;;;8.63;59.38;99182.59;5055942;28;20036;-78
2021/01/01 02:26:59;;;;;;;20.10;13.05;;;;;;;8.58;59.37;99184.91;5055932;28;20033;-79
2021/01/01 02:29:25;;;;;;;23.48;13.27;;;;;;;8.25;59.16;99142.16;5054928;28;20029;-79
2021/01/01 02:31:50;;;;;;;20.60;12.82;;;;;;;8.23;59.27;99142.34;5055739;28;20029;-78
2021/01/01 02:34:15;;;;;;;22.23;13.40;;;;;;;8.27;59.70;99156.78;5055948;28;20087;-76
2021/01/01 02:36:41;;;;;;;18.42;12.35;;;;;;;8.18;59.22;99154.38;5055823;28;20029;-78
2021/01/01 02:39:06;;;;;;;19.48;11.20;;;;;;;7.97;59.46;99124.22;5055825;28;20099;-78
2021/01/01 02:41:31;;;;;;;16.55;9.30;;;;;;;7.65;59.60;99085.75;5055602;28;20029;-78
2021/01/01 02:43:57;;;;;;;16.25;10.32;;;;;;;8.11;59.34;99159.47;5055792;28;20028;-77
2021/01/01 02:46:22;;;;;;;16.90;9.73;;;;;;;8.31;59.61;99193.25;5062996;22;20443;-77
2021/01/01 02:48:48;;;;;;;15.00;9.10;;;;;;;8.28;59.20;99186.53;5055558;28;20032;-79
2021/01/01 02:51:13;;;;;;;13.32;8.35;;;;;;;7.77;59.75;99104.59;5071090;28;20056;-78
2021/01/01 02:53:38;;;;;;;13.52;9.00;;;;;;;8.33;59.80;99186.03;5054294;28;20032;-79
2021/01/01 02:56:04;;;;;;;15.70;10.52;;;;;;;8.33;59.73;99184.25;5055493;28;20147;-78
2021/01/01 02:58:29;;;;;;;14.65;9.50;;;;;;;7.96;59.24;99130.44;5070765;28;20442;-80
2021/01/01 03:00:54;;;;;;;14.55;9.82;;;;;;;8.27;59.65;99188.34;5054289;28;20446;-79
2021/01/01 03:03:20;;;;;;;15.55;10.63;;;;;;;7.47;59.82;99061.53;5057664;28;20097;-76
2021/01/01 03:05:46;;;;;;;14.63;10.45;;;;;;;8.27;59.39;99187.53;5060615;28;20032;-78
2021/01/01 03:08:12;;;;;;;15.88;9.60;;;;;;;8.19;59.76;99172.59;5055252;28;20028;-78
2021/01/01 03:10:37;;;;;;;22.02;10.60;;;;;;;8.10;59.33;99164.91;5055162;28;20029;-78
2021/01/01 03:13:03;;;;;;;15.80;10.40;;;;;;;8.28;59.19;99186.53;5055281;28;20037;-78
2021/01/01 03:15:29;;;;;;;19.13;11.07;;;;;;;7.88;59.53;99127.03;5053999;28;20029;-76
2021/01/01 03:17:54;;;;;;;17.30;11.48;;;;;;;8.08;59.34;99161.63;5055118;28;20028;-78
2021/01/01 03:20:19;;;;;;;17.50;10.85;;;;;;;8.08;59.33;99153.72;5054001;28;20125;-77
2021/01/01 03:22:45;;;;;;;14.73;9.25;;;;;;;8.30;59.23;99189.81;5055113;28;20032;-79
2021/01/01 03:25:10;;;;;;;13.50;8.60;;;;;;;7.75;59.49;99116.25;5054987;28;20095;-78
2021/01/01 03:27:36;;;;;;;15.50;9.48;;;;;;;8.24;59.71;99183.44;5053833;28;20020;-77
2021/01/01 03:30:04;;;;;;;11.07;7.75;;;;;;;8.21;59.72;99193.47;5055037;28;20036;-76
2021/01/01 03:32:29;;;;;;;9.73;7.13;;;;;;;8.08;59.63;99175.59;5054648;28;20021;-78
2021/01/01 03:34:55;;;;;;;13.55;7.78;;;;;;;8.25;59.46;99190.31;5054797;28;20032;-74
2021/01/01 03:37:20;;;;;;;25.10;13.25;;;;;;;8.26;59.74;99191.97;5054707;28;20039;-79
2021/01/01 03:39:45;;;;;;;15.63;9.02;;;;;;;7.94;59.13;99157.91;5054920;28;20033;-78
2021/01/01 03:42:11;;;;;;;12.25;7.38;;;;;;;8.17;59.71;99187.72;5054707;28;20098;-77
2021/01/01 03:44:37;;;;;;;13.38;7.97;;;;;;;8.21;59.80;99202.19;5054587;28;20032;-77
2021/01/01 03:47:04;;;;;;;13.95;7.82;;;;;;;7.74;59.78;99133.00;5053473;28;20039;-78
2021/01/01 03:49:29;;;;;;;10.93;6.90;;;;;;;7.71;59.37;99123.66;5053403;28;20100;-76
2021/01/01 03:51:55;;;;;;;12.02;6.85;;;;;;;8.19;59.33;99208.59;5054713;28;20117;-78
2021/01/01 03:54:20;;;;;;;14.00;8.20;;;;;;;7.52;59.48;99105.66;5053461;28;20411;-78
2021/01/01 03:56:45;;;;;;;13.30;9.13;;;;;;;7.85;59.37;99153.66;5054720;28;20024;-80
2021/01/01 03:59:11;;;;;;;17.00;9.75;;;;;;;7.70;59.83;99118.56;5054510;28;20399;-76
2021/01/01 04:01:36;;;;;;;18.65;10.05;;;;;;;7.83;59.52;99138.06;5054378;28;20064;-77
2021/01/01 04:04:01;;;;;;;13.95;10.23;;;;;;;7.55;59.04;99097.44;5053454;28;20037;-75
2021/01/01 04:06:27;;;;;;;16.40;9.73;;;;;;;8.29;59.54;99206.59;5054413;28;20086;-78
2021/01/01 04:08:52;;;;;;;14.65;8.70;;;;;;;7.81;59.38;99149.75;5054410;28;20480;-77
2021/01/01 04:11:18;;;;;;;13.80;8.20;;;;;;;8.13;59.58;99194.31;5054654;28;20021;-78
2021/01/01 04:13:43;;;;;;;16.23;10.52;;;;;;;8.32;59.34;99229.09;5055728;28;20025;-78
2021/01/01 04:16:08;;;;;;;13.18;9.57;;;;;;;8.26;59.39;99226.16;5057515;28;20474;-77
2021/01/01 04:18:33;;;;;;;15.77;9.40;;;;;;;7.59;59.07;99123.22;5057317;28;20032;-77
2021/01/01 04:20:59;;;;;;;14.25;8.18;;;;;;;8.26;59.69;99234.06;5059893;28;20112;-78
2021/01/01 04:23:24;;;;;;;13.10;8.32;;;;;;;8.10;59.38;99213.03;5060751;28;20090;-76
2021/01/01 04:25:50;;;;;;;11.82;8.43;;;;;;;8.18;59.02;99234.09;5058588;28;20458;-76
2021/01/01 04:28:15;;;;;;;13.32;8.10;;;;;;;7.97;59.51;99213.59;5058574;28;20087;-77
2021/01/01 04:30:40;;;;;;;13.10;8.82;;;;;;;8.08;59.33;99236.06;5057388;28;20040;-77
2021/01/01 04:33:06;;;;;;;13.52;8.10;;;;;;;7.67;59.28;99166.22;5058839;28;20108;-80
2021/01/01 04:35:31;;;;;;;12.55;8.82;;;;;;;7.68;59.50;99192.31;5058149;28;20051;-80
2021/01/01 04:37:57;;;;;;;16.17;10.38;;;;;;;7.34;59.30;99126.84;5057170;28;20029;-80
2021/01/01 04:40:22;;;;;;;17.05;11.60;;;;;;;7.51;59.34;99164.44;5057996;28;20408;-80
2021/01/01 04:42:48;;;;;;;17.00;10.50;;;;;;;8.10;60.02;99268.25;5056981;28;20021;-80
2021/01/01 04:45:15;;;;;;;15.50;10.88;;;;;;;7.97;59.89;99255.66;5057927;28;20420;-79
2021/01/01 04:47:40;;;;;;;15.25;10.23;;;;;;;8.04;59.74;99268.94;5057778;28;20035;-79
2021/01/01 04:50:06;;;;;;;13.98;11.02;;;;;;;8.04;59.42;99271.56;5057933;28;20103;-79
2021/01/01 04:52:33;;;;;;;20.08;11.52;;;;;;;8.05;59.40;99273.22;5056576;28;20392;-79
2021/01/01 04:55:00;;;;;;;21.50;13.73;;;;;;;8.05;59.80;99275.84;5066027;22;20029;-79
2021/01/01 04:57:25;;;;;;;22.85;15.65;;;;;;;8.04;59.72;99287.34;5073069;28;20072;-80
2021/01/01 04:59:51;;;;;;;20.83;12.90;;;;;;;7.59;60.06;99223.03;5057698;28;20053;-79
2021/01/01 05:02:16;;;;;;;23.52;14.30;;;;;;;7.37;60.26;99172.97;5057820;28;20494;-80
2021/01/01 05:04:46;;;;;;;34.63;20.27;;;;;;;8.06;60.08;99274.84;5057619;28;20033;-79
2021/01/01 05:07:19;;;;;;;35.50;20.23;;;;;;;7.71;60.28;99236.66;5057909;28;20029;-80
2021/01/01 05:09:45;;;;;;;32.65;20.00;;;;;;;8.03;60.27;99287.50;5058279;28;20036;-78
2021/01/01 05:12:12;;;;;;;31.35;18.45;;;;;;;8.04;59.65;99289.16;5057906;28;20029;-79
2021/01/01 05:14:38;;;;;;;26.33;18.00;;;;;;;7.90;59.82;99285.41;5057623;28;20029;-80
2021/01/01 05:17:04;;;;;;;28.17;18.20;;;;;;;8.02;59.66;99293.75;5056919;28;20178;-80
2021/01/01 05:19:38;;;;;;;27.70;18.00;;;;;;;7.92;59.92;99286.06;5056890;28;20056;-80
2021/01/01 05:22:08;;;;;;;26.90;17.55;;;;;;;7.76;59.88;99267.69;5058138;28;20428;-79
2021/01/01 05:24:41;;;;;;;27.13;18.55;;;;;;;7.97;60.35;99299.53;5057694;28;20036;-80
2021/01/01 05:27:14;;;;;;;28.40;18.13;;;;;;;7.67;60.31;99284.44;5057791;28;20158;-80
2021/01/01 05:29:50;;;;;;;27.52;17.90;;;;;;;7.81;60.32;99331.09;5059187;28;20103;-78
2021/01/01 05:32:22;;;;;;;37.28;23.15;;;;;;;7.83;60.25;99308.91;5059461;28;20104;-79
2021/01/01 05:34:48;;;;;;;31.67;19.73;;;;;;;7.63;60.26;99287.41;5058737;22;20113;-80
2021/01/01 05:37:31;;;;;;;33.30;20.05;;;;;;;7.67;60.40;99314.19;5047859;23;20015;-80
2021/01/01 05:40:03;;;;;;;44.25;27.13;;;;;;;7.75;60.74;99331.75;5076245;28;20024;-80
2021/01/01 05:42:28;;;;;;;33.65;19.65;;;;;;;7.54;60.32;99303.34;5076290;28;20083;-80
2021/01/01 05:47:19;;;;;;;38.02;23.28;;;;;;;7.62;60.57;99319.09;5067146;22;20056;-80
2021/01/01 05:49:44;;;;;;;33.20;21.30;;;;;;;7.74;60.72;99335.34;5059632;28;20043;-81
2021/01/01 05:52:20;;;;;;;30.75;22.35;;;;;;;7.32;60.51;99299.53;5060875;28;20025;-79
2021/01/01 05:54:58;;;;;;;33.85;22.10;;;;;;;7.30;60.31;99276.06;5060870;28;20017;-79
2021/01/01 05:57:33;;;;;;;28.45;20.38;;;;;;;7.33;60.32;99304.63;5076929;28;20045;-79
2021/01/01 06:00:01;;;;;;;28.90;19.27;;;;;;;7.42;60.92;99331.72;5061617;28;20025;-78
2021/01/01 06:02:34;;;;;;;30.30;19.85;;;;;;;7.67;60.38;99371.16;5068455;22;20053;-79
2021/01/01 06:05:01;;;;;;;30.00;20.92;;;;;;;7.68;61.08;99370.19;5060251;28;20029;-79
2021/01/01 06:07:29;;;;;;;35.75;21.08;;;;;;;7.04;60.13;99264.88;5061049;28;20033;-79
2021/01/01 06:10:01;;;;;;;29.90;20.65;;;;;;;7.69;61.06;99375.28;5068432;22;20041;-80
2021/01/01 06:12:29;;;;;;;29.42;21.13;;;;;;;7.23;60.98;99309.19;5059680;28;20071;-80
2021/01/01 06:14:59;;;;;;;32.35;22.15;;;;;;;7.65;60.52;99366.06;5075411;28;20505;-80
2021/01/01 06:17:51;;;;;;;31.00;21.50;;;;;;;7.67;61.27;99379.03;5067904;22;20039;-80
2021/01/01 06:20:23;;;;;;;30.58;21.40;;;;;;;7.65;61.01;99373.94;5058619;28;20482;-80
2021/01/01 06:23:18;;;;;;;33.25;21.73;;;;;;;7.23;60.96;99314.47;5060393;28;20033;-80
2021/01/01 06:25:44;;;;;;;36.38;21.55;;;;;;;7.38;60.82;99347.94;5066820;22;20041;-80
2021/01/01 06:28:14;;;;;;;44.28;26.85;;;;;;;7.24;60.78;99334.47;5060322;28;20367;-79
2021/01/01 06:30:40;;;;;;;46.33;27.13;;;;;;;7.39;60.66;99357.47;5060124;28;20461;-78
2021/01/01 06:33:07;;;;;;;50.53;26.10;;;;;;;7.67;60.42;99406.13;5059980;28;20025;-80
2021/01/01 06:35:41;;;;;;;56.17;32.67;;;;;;;7.67;60.68;99397.44;5058955;28;20028;-80
2021/01/01 06:38:07;;;;;;;91.82;52.00;;;;;;;7.68;60.16;99409.59;5060939;28;20028;-81
2021/01/01 06:40:35;;;;;;;88.70;51.47;;;;;;;7.70;59.99;99403.19;5078684;22;20053;-80
2021/01/01 06:43:09;;;;;;;86.35;47.63;;;;;;;7.67;60.43;99408.78;5079789;28;20023;-81
2021/01/01 06:45:39;;;;;;;88.35;52.13;;;;;;;7.69;60.41;99414.69;5079505;28;20024;-79
2021/01/01 06:48:05;;;;;;;83.47;47.42;;;;;;;7.67;60.70;99414.03;5085351;22;20075;-79
2021/01/01 06:50:33;;;;;;;82.70;48.20;;;;;;;7.70;60.65;99416.31;5078571;28;20043;-79
2021/01/01 06:55:42;;;;;;;59.72;36.04;;;;;;;7.62;60.20;99392.66;5084511;22;20058;-79
2021/01/01 06:58:09;;;;;;;48.13;28.80;;;;;;;7.74;59.97;99403.69;5085204;22;20040;-79
2021/01/01 07:00:47;;;;;;;42.20;25.70;;;;;;;7.82;59.76;99425.53;5077363;28;20016;-78
2021/01/01 07:03:29;;;;;;;37.60;22.20;;;;;;;7.69;59.98;99392.84;5083497;22;20055;-78
2021/01/01 07:05:56;;;;;;;47.28;27.38;;;;;;;7.72;60.13;99398.59;5078009;28;20129;-78
2021/01/01 07:08:42;;;;;;;56.95;34.70;;;;;;;7.95;59.81;99423.25;5077740;28;20032;-79
2021/01/01 07:11:11;;;;;;;58.70;34.00;;;;;;;7.98;59.82;99427.34;5077557;28;20025;-79
2021/01/01 07:14:07;;;;;;;59.17;36.67;;;;;;;7.51;60.44;99343.91;5075902;28;20021;-80
2021/01/01 07:16:45;;;;;;;69.05;37.13;;;;;;;8.08;60.17;99435.91;5066797;28;20037;-80
2021/01/01 07:19:11;;;;;;;63.30;38.63;;;;;;;8.02;60.08;99419.94;5075331;28;20028;-79
2021/01/01 07:21:38;;;;;;;82.18;48.90;;;;;;;8.10;60.29;99439.19;5075123;28;20028;-78
2021/01/01 07:24:04;;;;;;;94.25;54.78;;;;;;;8.13;59.93;99435.41;5075101;28;20115;-80
2021/01/01 07:26:30;;;;;;;77.95;46.33;;;;;;;7.49;59.82;99348.50;5074110;28;20487;-78
2021/01/01 07:28:58;;;;;;;63.70;38.50;;;;;;;8.23;59.80;99442.16;5075007;28;20029;-78
2021/01/01 07:31:24;;;;;;;64.10;40.30;;;;;;;8.02;60.07;99406.81;5073856;28;20496;-78
2021/01/01 07:33:50;;;;;;;56.72;38.35;;;;;;;7.85;59.72;99377.06;5074905;28;20107;-79
2021/01/01 07:36:16;;;;;;;62.45;39.35;;;;;;;8.31;59.89;99451.84;5074956;28;20024;-79
2021/01/01 07:38:48;;;;;;;57.13;38.30;;;;;;;8.29;59.84;99443.31;5073716;28;20024;-79
2021/01/01 07:41:17;;;;;;;63.38;39.25;;;;;;;8.24;59.63;99435.09;5073781;28;20124;-77
2021/01/01 07:43:43;;;;;;;93.40;58.28;;;;;;;8.10;59.83;99393.66;5074895;28;20419;-80
2021/01/01 07:46:10;;;;;;;92.65;61.28;;;;;;;8.65;59.85;99464.81;5074668;28;20032;-77
2021/01/01 07:48:37;;;;;;;89.45;55.90;;;;;;;8.72;59.33;99465.81;5074257;28;20111;-80
2021/01/01 07:51:05;;;;;;;86.68;58.40;;;;;;;8.76;59.57;99463.66;5073417;28;20029;-80
2021/01/01 07:53:30;;;;;;;80.88;50.13;;;;;;;8.41;59.33;99402.56;5074392;28;20035;-79
2021/01/01 07:56:04;;;;;;;44.53;32.20;;;;;;;8.83;59.69;99462.81;5073521;28;20020;-79
2021/01/01 07:58:31;;;;;;;43.15;31.08;;;;;;;8.88;59.45;99462.31;5074487;28;20032;-78
2021/01/01 08:01:06;;;;;;;42.53;28.25;;;;;;;9.06;59.14;99476.09;5073306;28;20031;-78
2021/01/01 08:03:32;;;;;;;42.60;24.23;;;;;;;9.13;59.19;99482.34;5073614;28;20351;-79
2021/01/01 08:05:58;;;;;;;29.67;20.65;;;;;;;8.71;59.26;99402.81;5073364;28;20021;-78
2021/01/01 08:08:25;;;;;;;33.00;20.02;;;;;;;8.90;58.75;99423.47;5074564;28;20402;-77
2021/01/01 08:10:52;;;;;;;39.03;24.95;;;;;;;9.04;58.59;99435.94;5074293;28;20070;-77
2021/01/01 08:13:22;;;;;;;44.88;29.73;;;;;;;8.73;58.71;99393.75;5074352;28;20336;-79
2021/01/01 08:15:49;;;;;;;52.38;32.90;;;;;;;8.88;58.83;99397.31;5074313;28;20107;-79
2021/01/01 08:18:21;;;;;;;45.65;30.50;;;;;;;9.53;58.94;99481.31;5074355;28;20108;-79
2021/01/01 08:20:58;;;;;;;32.33;21.05;;;;;;;9.12;58.40;99414.84;5073078;28;20020;-79
2021/01/01 08:23:25;;;;;;;35.20;19.65;;;;;;;9.64;58.29;99493.28;5073212;28;20029;-77
2021/01/01 08:25:52;;;;;;;38.35;24.83;;;;;;;9.70;58.14;99492.63;5073125;28;20056;-77
2021/01/01 08:28:28;;;;;;;30.08;21.08;;;;;;;9.61;58.10;99474.38;5074212;28;20402;-76
2021/01/01 08:30:58;;;;;;;26.67;18.80;;;;;;;9.76;58.08;99496.41;5074170;28;20032;-78
2021/01/01 08:33:30;;;;;;;28.88;19.98;;;;;;;9.79;58.04;99496.03;5074191;28;20052;-79
2021/01/01 08:36:07;;;;;;;27.98;19.20;;;;;;;9.69;57.86;99480.44;5074235;28;20033;-77
2021/01/01 08:38:33;;;;;;;42.00;26.67;;;;;;;9.35;57.89;99414.06;5074052;28;20039;-77
2021/01/01 08:40:59;;;;;;;42.00;28.75;;;;;;;9.93;57.88;99499.75;5073917;28;20024;-79
2021/01/01 08:43:26;;;;;;;44.97;29.65;;;;;;;9.98;57.72;99507.97;5074023;28;20031;-78
2021/01/01 08:45:52;;;;;;;52.35;35.25;;;;;;;10.04;57.64;99513.34;5073842;28;20035;-77
2021/01/01 08:48:18;;;;;;;51.45;35.17;;;;;;;10.08;57.31;99517.28;5074119;28;20024;-78
2021/01/01 08:50:48;;;;;;;51.63;31.92;;;;;;;9.55;57.24;99420.53;5073851;28;20033;-79
2021/01/01 08:53:14;;;;;;;48.38;31.08;;;;;;;9.70;57.41;99433.81;5073113;28;20025;-79
2021/01/01 08:55:40;;;;;;;43.55;30.08;;;;;;;10.24;57.22;99508.47;5073925;28;20041;-75
2021/01/01 08:58:14;;;;;;;46.42;29.17;;;;;;;10.29;57.07;99507.94;5073948;28;20103;-76
2021/01/01 09:00:44;;;;;;;43.58;30.77;;;;;;;10.25;57.34;99491.63;5074777;28;20402;-77
2021/01/01 09:03:10;;;;;;;41.08;28.88;;;;;;;9.87;56.71;99422.16;5077431;28;20028;-79
2021/01/01 09:05:36;;;;;;;48.33;30.83;;;;;;;10.43;56.53;99505.38;5076469;28;20070;-77
2021/01/01 09:08:10;;;;;;;44.15;29.80;;;;;;;10.48;56.51;99510.09;5077457;28;20028;-78
2021/01/01 09:10:37;;;;;;;44.45;29.73;;;;;;;10.52;56.59;99514.03;5076213;28;20025;-77
2021/01/01 09:13:20;;;;;;;38.50;27.35;;;;;;;10.56;56.24;99509.22;5076129;28;20436;-77
2021/01/01 09:15:47;;;;;;;38.67;27.30;;;;;;;10.60;56.73;99515.78;5059495;28;20039;-79
2021/01/01 09:18:13;;;;;;;37.90;27.23;;;;;;;10.65;56.75;99510.78;5077457;28;20024;-77
2021/01/01 09:20:40;;;;;;;42.70;29.67;;;;;;;10.25;56.25;99451.22;5077100;28;20078;-76
2021/01/01 09:23:07;;;;;;;45.22;29.38;;;;;;;10.72;56.22;99516.97;5077042;28;20403;-79
2021/01/01 09:25:33;;;;;;;39.55;27.95;;;;;;;10.39;55.75;99447.81;5076423;28;20075;-78
2021/01/01 09:27:59;;;;;;;38.28;26.20;;;;;;;10.83;56.13;99512.09;5076631;28;20430;-76
2021/01/01 09:30:33;;;;;;;37.42;26.00;;;;;;;10.78;55.73;99495.97;5076173;28;20119;-79
2021/01/01 09:33:00;;;;;;;40.03;27.98;;;;;;;10.92;55.96;99506.72;5077351;28;20032;-77
2021/01/01 09:35:27;;;;;;;38.08;26.35;;;;;;;10.87;55.48;99495.88;5076917;28;20153;-76
2021/01/01 09:37:55;;;;;;;38.80;26.63;;;;;;;10.90;55.72;99501.63;5076779;28;20024;-79
2021/01/01 09:40:24;;;;;;;32.90;22.42;;;;;;;11.04;55.23;99510.56;5076709;28;20346;-80
2021/01/01 09:42:49;;;;;;;32.63;22.55;;;;;;;10.75;55.24;99456.72;5075827;28;20085;-76
2021/01/01 09:45:15;;;;;;;33.00;22.85;;;;;;;10.97;54.82;99481.41;5076840;28;20032;-78
2021/01/01 09:47:41;;;;;;;31.88;21.10;;;;;;;11.18;54.71;99501.00;5076809;28;20058;-79
2021/01/01 09:50:07;;;;;;;29.13;19.65;;;;;;;11.25;54.05;99496.63;5075616;28;20384;-78
2021/01/01 09:52:34;;;;;;;25.52;18.77;;;;;;;10.99;54.00;99450.34;5075532;28;20020;-77
2021/01/01 09:54:59;;;;;;;24.05;17.05;;;;;;;11.06;53.42;99455.72;5076599;28;20148;-77
2021/01/01 09:57:25;;;;;;;23.83;16.83;;;;;;;10.98;53.25;99432.84;5076454;28;20407;-79
2021/01/01 09:59:50;;;;;;;24.70;17.45;;;;;;;10.86;53.52;99405.25;5076278;28;20032;-77
2021/01/01 10:02:15;;;;;;;24.35;16.55;;;;;;;11.31;52.96;99462.38;5075390;28;20395;-77
2021/01/01 10:04:41;;;;;;;23.50;16.98;;;;;;;11.38;52.92;99471.19;5075131;28;20464;-75
2021/01/01 10:07:06;;;;;;;15.93;11.43;;;;;;;11.23;52.36;99446.59;5076462;28;20063;-77
2021/01/01 10:09:32;;;;;;;18.13;12.75;;;;;;;11.25;52.38;99441.94;5076295;28;20107;-75
2021/01/01 10:12:03;;;;;;;19.20;12.77;;;;;;;11.80;51.79;99501.41;5075885;28;20077;-77
2021/01/01 10:14:28;;;;;;;17.35;11.75;;;;;;;11.58;51.76;99467.97;5076252;28;20029;-78
2021/01/01 10:16:54;;;;;;;19.17;13.23;;;;;;;11.87;52.01;99497.00;5076048;28;20040;-77
2021/01/01 10:19:19;;;;;;;18.98;13.52;;;;;;;11.99;51.84;99492.88;5076167;28;20092;-77
2021/01/01 10:21:44;;;;;;;15.63;11.57;;;;;;;11.78;51.31;99461.09;5075896;28;20040;-78
2021/01/01 10:24:10;;;;;;;15.48;10.95;;;;;;;11.77;51.58;99443.56;5076029;28;20110;-76
2021/01/01 10:26:35;;;;;;;15.13;11.48;;;;;;;11.94;50.69;99454.75;5075786;28;20043;-75
2021/01/01 10:29:01;;;;;;;19.48;11.48;;;;;;;12.13;50.50;99470.00;5074851;28;20031;-75
2021/01/01 10:31:26;;;;;;;17.85;12.18;;;;;;;12.32;50.40;99484.44;5075877;28;20012;-79
2021/01/01 10:33:51;;;;;;;15.95;11.23;;;;;;;12.09;50.73;99432.53;5075765;28;20457;-79
2021/01/01 10:36:17;;;;;;;18.52;12.30;;;;;;;12.26;50.14;99459.53;5075799;28;20028;-78
2021/01/01 10:38:42;;;;;;;17.63;11.80;;;;;;;12.48;50.10;99476.22;5074574;28;20415;-78
2021/01/01 10:41:14;;;;;;;15.93;10.32;;;;;;;12.32;49.46;99448.19;5075628;28;20111;-78
2021/01/01 10:43:41;;;;;;;15.55;10.43;;;;;;;12.20;49.39;99422.44;5074467;28;20048;-77
2021/01/01 10:46:07;;;;;;;10.38;6.78;;;;;;;12.63;48.78;99470.81;5075594;28;20039;-79
2021/01/01 10:48:34;;;;;;;9.98;5.88;;;;;;;12.64;47.72;99475.13;5075484;28;20413;-77
2021/01/01 10:50:59;;;;;;;6.30;4.72;;;;;;;12.03;47.75;99364.47;5074374;28;20024;-76
2021/01/01 10:53:25;;;;;;;6.45;3.63;;;;;;;12.22;47.37;99393.94;5075471;28;20032;-79
2021/01/01 10:55:50;;;;;;;8.15;5.43;;;;;;;12.68;46.90;99463.97;5075265;28;20416;-77
2021/01/01 10:58:26;;;;;;;5.10;2.80;;;;;;;12.60;44.86;99448.19;5075344;28;20355;-78
2021/01/01 11:00:56;;;;;;;4.65;2.97;;;;;;;12.51;46.15;99430.81;5075161;28;20345;-76
2021/01/01 11:03:22;;;;;;;5.32;2.50;;;;;;;12.66;45.22;99460.69;5075204;28;20078;-75
2021/01/01 11:05:48;;;;;;;5.40;3.00;;;;;;;12.53;45.18;99438.56;5075141;28;20043;-77
2021/01/01 11:08:14;;;;;;;5.95;3.85;;;;;;;12.70;45.24;99461.94;5075225;28;20029;-76
2021/01/01 11:10:39;;;;;;;5.43;3.13;;;;;;;12.74;44.69;99451.78;5074899;28;20095;-77
2021/01/01 11:13:06;;;;;;;5.45;3.38;;;;;;;12.64;44.78;99441.53;5074104;28;20074;-77
2021/01/01 12:20:24;;;;;;;5.57;3.60;;;;;;;12.85;45.18;99472.44;5059153;28;20035;-79
2021/01/01 12:25:07;;;;;;;6.70;3.20;;;;;;;12.50;45.62;99431.00;5074560;28;20035;-77
2021/01/01 12:27:35;;;;;;;7.45;3.50;;;;;;;12.05;45.03;99362.47;5074161;28;20473;-79
2021/01/01 12:30:04;;;;;;;3.22;2.50;;;;;;;12.83;45.31;99476.28;5074308;28;20024;-79
2021/01/01 12:32:31;;;;;;;4.95;3.55;;;;;;;12.92;45.31;99498.97;5072974;28;20027;-79
2021/01/01 12:34:56;;;;;;;4.63;2.95;;;;;;;12.78;45.46;99478.69;5075713;28;20025;-78
2021/01/01 12:37:22;;;;;;;4.38;2.80;;;;;;;12.62;45.25;99463.88;5077215;28;20039;-77
2021/01/01 12:39:47;;;;;;;6.72;3.58;;;;;;;12.90;45.00;99501.81;5077940;28;20024;-79